Time,TemperatureF,DewpointF,PressureIn,WindDirection,WindDirectionDegrees,WindSpeedMPH,WindSpeedGustMPH,Humidity,HourlyPrecipIn,Conditions,Clouds,dailyrainin,SoftwareType,DateUTC
2013-02-21 00:04:00,26.6,23.0,30.05,SE,131,2.0,4.0,85,0.00,,,0.00,weatherlink.com 1.10,2013-02-21 08:04:00,
2013-02-21 00:19:00,27.0,23.0,30.05,SE,136,1.0,4.0,84,0.00,,,0.00,weatherlink.com 1.10,2013-02-21 08:19:00,
2013-02-21 00:34:00,27.6,23.0,30.06,SSE,155,0.0,3.0,84,0.00,,,0.00,weatherlink.com 1.10,2013-02-21 08:34:00,
2013-02-21 00:49:00,27.5,23.0,30.07,SSE,155,0.0,1.0,84,0.00,,,0.00,weatherlink.com 1.10,2013-02-21 08:49:00,
2013-02-21 01:04:00,27.5,23.0,30.08,SSE,152,0.0,1.0,84,0.00,,,0.00,weatherlink.com 1.10,2013-02-21 09:04:00,
2013-02-21 01:19:00,27.4,23.0,30.08,SW,233,0.0,1.0,84,0.00,,,0.00,weatherlink.com 1.10,2013-02-21 09:19:00,
2013-02-21 01:34:00,27.4,23.0,30.09,SW,233,0.0,0.0,84,0.00,,,0.00,weatherlink.com 1.10,2013-02-21 09:34:00,
2013-02-21 01:49:00,27.4,23.0,30.09,SW,232,0.0,1.0,84,0.00,,,0.00,weatherlink.com 1.10,2013-02-21 09:49:00,
2013-02-21 02:04:00,27.4,23.0,30.10,SW,232,0.0,0.0,83,0.00,,,0.00,weatherlink.com 1.10,2013-02-21 10:04:00,
2013-02-21 02:19:00,27.4,23.0,30.09,SE,146,0.0,3.0,83,0.00,,,0.00,weatherlink.com 1.10,2013-02-21 10:19:00,
2013-02-21 02:34:00,27.4,23.0,30.08,SE,142,0.0,4.0,82,0.00,,,0.00,weatherlink.com 1.10,2013-02-21 10:34:00,
2013-02-21 02:49:00,27.2,22.0,30.09,SSE,150,3.0,5.0,82,0.00,,,0.00,weatherlink.com 1.10,2013-02-21 10:49:00,
2013-02-21 03:04:00,26.7,23.0,30.08,SE,146,0.0,5.0,84,0.00,,,0.00,weatherlink.com 1.10,2013-02-21 11:04:00,
2013-02-21 03:20:00,26.3,22.0,30.09,SSE,156,2.0,5.0,85,0.00,,,0.00,weatherlink.com 1.10,2013-02-21 11:20:00,
2013-02-21 03:35:00,26.0,22.0,30.09,ESE,120,2.0,6.0,86,0.00,,,0.00,weatherlink.com 1.10,2013-02-21 11:35:00,
2013-02-21 03:50:00,26.2,23.0,30.10,SSE,152,2.0,6.0,86,0.00,,,0.00,weatherlink.com 1.10,2013-02-21 11:50:00,
2013-02-21 04:05:00,26.2,22.0,30.10,ESE,122,0.0,4.0,85,0.00,,,0.00,weatherlink.com 1.10,2013-02-21 12:05:00,
2013-02-21 04:20:00,26.8,22.0,30.11,WSW,252,0.0,1.0,83,0.00,,,0.00,weatherlink.com 1.10,2013-02-21 12:20:00,
2013-02-21 04:35:00,26.9,22.0,30.11,SSW,208,1.0,1.0,83,0.00,,,0.00,weatherlink.com 1.10,2013-02-21 12:35:00,
2013-02-21 04:50:00,26.6,22.0,30.11,SSE,161,2.0,2.0,83,0.00,,,0.00,weatherlink.com 1.10,2013-02-21 12:50:00,
2013-02-21 05:05:00,26.8,22.0,30.11,SSW,195,0.0,3.0,83,0.00,,,0.00,weatherlink.com 1.10,2013-02-21 13:05:00,
2013-02-21 05:20:00,27.2,22.0,30.11,SSE,153,3.0,5.0,82,0.00,,,0.00,weatherlink.com 1.10,2013-02-21 13:20:00,
2013-02-21 05:35:00,27.5,22.0,30.11,SE,144,2.0,4.0,81,0.00,,,0.00,weatherlink.com 1.10,2013-02-21 13:35:00,
2013-02-21 05:50:00,27.5,22.0,30.10,SSE,158,1.0,6.0,81,0.00,,,0.00,weatherlink.com 1.10,2013-02-21 13:50:00,
2013-02-21 06:05:00,27.6,23.0,30.11,ESE,115,3.0,5.0,81,0.00,,,0.00,weatherlink.com 1.10,2013-02-21 14:05:00,
2013-02-21 06:20:00,27.0,22.0,30.11,ESE,115,0.0,5.0,82,0.00,,,0.00,weatherlink.com 1.10,2013-02-21 14:20:00,
2013-02-21 06:35:00,26.9,22.0,30.11,ESE,119,0.0,4.0,82,0.00,,,0.00,weatherlink.com 1.10,2013-02-21 14:35:00,
2013-02-21 06:50:00,27.3,23.0,30.11,SE,131,2.0,3.0,82,0.00,,,0.00,weatherlink.com 1.10,2013-02-21 14:50:00,
2013-02-21 07:05:00,27.7,23.0,30.12,WSW,249,2.0,6.0,81,0.00,,,0.00,weatherlink.com 1.10,2013-02-21 15:05:00,
2013-02-21 07:20:00,28.5,22.0,30.12,SSE,166,5.0,10.0,78,0.00,,,0.00,weatherlink.com 1.10,2013-02-21 15:20:00,
2013-02-21 07:35:00,28.9,23.0,30.11,WSW,255,10.0,13.0,77,0.00,,,0.00,weatherlink.com 1.10,2013-02-21 15:35:00,
2013-02-21 07:50:00,29.0,23.0,30.11,SW,218,3.0,9.0,77,0.00,,,0.00,weatherlink.com 1.10,2013-02-21 15:50:00,
2013-02-21 08:05:00,29.2,23.0,30.12,SSW,210,5.0,8.0,76,0.00,,,0.00,weatherlink.com 1.10,2013-02-21 16:05:00,
2013-02-21 08:20:00,29.3,22.0,30.13,NW,309,3.0,12.0,74,0.00,,,0.00,weatherlink.com 1.10,2013-02-21 16:20:00,
2013-02-21 08:35:00,29.6,22.0,30.13,WNW,291,4.0,8.0,73,0.00,,,0.00,weatherlink.com 1.10,2013-02-21 16:35:00,
2013-02-21 08:50:00,29.7,22.0,30.13,SSW,195,6.0,11.0,73,0.00,,,0.00,weatherlink.com 1.10,2013-02-21 16:50:00,
2013-02-21 09:05:00,30.1,22.0,30.13,WSW,239,6.0,10.0,73,0.00,,,0.00,weatherlink.com 1.10,2013-02-21 17:05:00,
2013-02-21 09:20:00,30.7,23.0,30.13,WNW,292,4.0,9.0,72,0.00,,,0.00,weatherlink.com 1.10,2013-02-21 17:20:00,
2013-02-21 09:35:00,30.7,22.0,30.14,WNW,300,10.0,13.0,70,0.00,,,0.00,weatherlink.com 1.10,2013-02-21 17:35:00,
2013-02-21 09:50:00,30.7,23.0,30.14,WNW,284,3.0,14.0,72,0.00,,,0.00,weatherlink.com 1.10,2013-02-21 17:50:00,
2013-02-21 10:05:00,30.6,23.0,30.15,West,259,4.0,13.0,72,0.00,,,0.00,weatherlink.com 1.10,2013-02-21 18:05:00,
2013-02-21 10:20:00,30.8,22.0,30.15,WSW,257,7.0,15.0,71,0.00,,,0.00,weatherlink.com 1.10,2013-02-21 18:20:00,
2013-02-21 10:35:00,31.1,22.0,30.14,WNW,293,8.0,14.0,69,0.00,,,0.00,weatherlink.com 1.10,2013-02-21 18:35:00,
2013-02-21 10:50:00,31.1,22.0,30.15,NW,314,10.0,16.0,70,0.00,,,0.00,weatherlink.com 1.10,2013-02-21 18:50:00,
2013-02-21 11:05:00,31.1,22.0,30.16,WSW,257,9.0,17.0,69,0.00,,,0.00,weatherlink.com 1.10,2013-02-21 19:05:00,
2013-02-21 11:20:00,30.8,21.0,30.16,WNW,288,8.0,21.0,67,0.00,,,0.00,weatherlink.com 1.10,2013-02-21 19:20:00,
2013-02-21 11:35:00,30.9,21.0,30.16,WNW,295,9.0,16.0,68,0.00,,,0.00,weatherlink.com 1.10,2013-02-21 19:35:00,
2013-02-21 11:50:00,31.2,22.0,30.16,WNW,297,5.0,15.0,68,0.00,,,0.00,weatherlink.com 1.10,2013-02-21 19:50:00,
2013-02-21 12:05:00,31.7,21.0,30.16,WNW,291,4.0,11.0,66,0.00,,,0.00,weatherlink.com 1.10,2013-02-21 20:05:00,
2013-02-21 12:20:00,31.8,22.0,30.15,WSW,240,6.0,13.0,66,0.00,,,0.00,weatherlink.com 1.10,2013-02-21 20:20:00,
2013-02-21 12:35:00,31.7,22.0,30.15,NW,314,17.0,17.0,67,0.00,,,0.00,weatherlink.com 1.10,2013-02-21 20:35:00,
2013-02-21 12:50:00,31.6,22.0,30.15,West,268,4.0,17.0,67,0.00,,,0.00,weatherlink.com 1.10,2013-02-21 20:50:00,
2013-02-21 13:05:00,31.6,22.0,30.15,WNW,297,13.0,18.0,68,0.00,,,0.00,weatherlink.com 1.10,2013-02-21 21:05:00,
2013-02-21 13:20:00,31.5,22.0,30.14,WSW,245,11.0,14.0,69,0.00,,,0.00,weatherlink.com 1.10,2013-02-21 21:20:00,
2013-02-21 13:35:00,31.4,22.0,30.14,SW,224,5.0,11.0,69,0.00,,,0.00,weatherlink.com 1.10,2013-02-21 21:35:00,
2013-02-21 13:50:00,31.4,22.0,30.13,WNW,300,9.0,15.0,69,0.00,,,0.00,weatherlink.com 1.10,2013-02-21 21:50:00,
2013-02-21 14:06:00,31.8,22.0,30.13,WNW,295,7.0,18.0,68,0.00,,,0.00,weatherlink.com 1.10,2013-02-21 22:06:00,
2013-02-21 14:21:00,32.0,22.0,30.13,West,262,4.0,18.0,68,0.00,,,0.00,weatherlink.com 1.10,2013-02-21 22:21:00,
2013-02-21 14:36:00,31.9,22.0,30.13,WNW,297,3.0,14.0,68,0.00,,,0.00,weatherlink.com 1.10,2013-02-21 22:36:00,
2013-02-21 14:51:00,31.8,23.0,30.13,WNW,302,9.0,11.0,69,0.00,,,0.00,weatherlink.com 1.10,2013-02-21 22:51:00,
2013-02-21 15:06:00,32.3,23.0,30.13,WNW,288,4.0,11.0,69,0.00,,,0.00,weatherlink.com 1.10,2013-02-21 23:06:00,
2013-02-21 15:21:00,32.7,22.0,30.13,SSW,212,6.0,13.0,66,0.00,,,0.00,weatherlink.com 1.10,2013-02-21 23:21:00,
2013-02-21 15:36:00,32.9,23.0,30.13,West,263,3.0,15.0,66,0.00,,,0.00,weatherlink.com 1.10,2013-02-21 23:36:00,
2013-02-21 15:51:00,32.9,23.0,30.13,WNW,301,9.0,14.0,66,0.00,,,0.00,weatherlink.com 1.10,2013-02-21 23:51:00,
2013-02-21 16:06:00,32.8,23.0,30.13,WSW,247,4.0,14.0,66,0.00,,,0.00,weatherlink.com 1.10,2013-02-22 00:06:00,
2013-02-21 16:21:00,32.6,23.0,30.13,NW,321,4.0,14.0,68,0.00,,,0.00,weatherlink.com 1.10,2013-02-22 00:21:00,
2013-02-21 16:36:00,32.3,23.0,30.13,West,269,2.0,12.0,69,0.00,,,0.00,weatherlink.com 1.10,2013-02-22 00:36:00,
2013-02-21 16:51:00,32.0,23.0,30.13,WNW,297,3.0,11.0,70,0.00,,,0.00,weatherlink.com 1.10,2013-02-22 00:51:00,
2013-02-21 17:06:00,31.8,23.0,30.13,West,264,4.0,12.0,71,0.00,,,0.00,weatherlink.com 1.10,2013-02-22 01:06:00,
2013-02-21 17:21:00,31.5,23.0,30.14,South,187,2.0,10.0,72,0.00,,,0.00,weatherlink.com 1.10,2013-02-22 01:21:00,
2013-02-21 17:36:00,31.4,23.0,30.14,WNW,288,2.0,10.0,72,0.00,,,0.00,weatherlink.com 1.10,2013-02-22 01:36:00,
2013-02-21 17:51:00,31.1,23.0,30.14,WSW,238,3.0,5.0,73,0.00,,,0.00,weatherlink.com 1.10,2013-02-22 01:51:00,
2013-02-21 18:06:00,30.9,24.0,30.13,SW,229,2.0,6.0,74,0.00,,,0.00,weatherlink.com 1.10,2013-02-22 02:06:00,
2013-02-21 18:21:00,30.8,23.0,30.15,WSW,257,5.0,7.0,74,0.00,,,0.00,weatherlink.com 1.10,2013-02-22 02:21:00,
2013-02-21 18:36:00,30.8,23.0,30.14,SW,231,2.0,8.0,74,0.00,,,0.00,weatherlink.com 1.10,2013-02-22 02:36:00,
2013-02-21 18:51:00,30.8,23.0,30.15,SW,235,6.0,9.0,74,0.00,,,0.00,weatherlink.com 1.10,2013-02-22 02:51:00,
2013-02-21 19:06:00,30.7,24.0,30.16,West,260,3.0,9.0,75,0.00,,,0.00,weatherlink.com 1.10,2013-02-22 03:06:00,
2013-02-21 19:21:00,30.6,24.0,30.17,WSW,257,3.0,7.0,76,0.00,,,0.00,weatherlink.com 1.10,2013-02-22 03:21:00,
2013-02-21 19:36:00,30.5,24.0,30.18,WSW,245,5.0,8.0,76,0.00,,,0.00,weatherlink.com 1.10,2013-02-22 03:36:00,
2013-02-21 19:51:00,30.1,24.0,30.17,WNW,300,1.0,6.0,78,0.00,,,0.00,weatherlink.com 1.10,2013-02-22 03:51:00,
2013-02-21 20:21:00,30.1,24.0,30.16,West,271,5.0,8.0,77,0.00,,,0.00,weatherlink.com 1.10,2013-02-22 04:21:00,
2013-02-21 20:36:00,30.3,24.0,30.16,West,281,1.0,7.0,76,0.00,,,0.00,weatherlink.com 1.10,2013-02-22 04:36:00,
2013-02-21 20:51:00,30.3,24.0,30.17,SSE,162,0.0,4.0,76,0.00,,,0.00,weatherlink.com 1.10,2013-02-22 04:51:00,
2013-02-21 21:21:00,30.5,23.0,30.16,WSW,256,2.0,7.0,74,0.00,,,0.00,weatherlink.com 1.10,2013-02-22 05:21:00,
2013-02-21 21:36:00,30.5,23.0,30.16,WNW,283,2.0,8.0,74,0.00,,,0.00,weatherlink.com 1.10,2013-02-22 05:36:00,
2013-02-21 21:51:00,30.6,23.0,30.16,WNW,284,3.0,4.0,74,0.00,,,0.00,weatherlink.com 1.10,2013-02-22 05:51:00,
2013-02-21 22:06:00,30.5,23.0,30.16,WNW,294,3.0,7.0,74,0.00,,,0.00,weatherlink.com 1.10,2013-02-22 06:06:00,
2013-02-21 22:21:00,30.4,23.0,30.16,WNW,295,0.0,5.0,74,0.00,,,0.00,weatherlink.com 1.10,2013-02-22 06:21:00,
2013-02-21 22:36:00,30.5,23.0,30.17,WSW,242,1.0,6.0,74,0.00,,,0.00,weatherlink.com 1.10,2013-02-22 06:36:00,
2013-02-21 22:51:00,30.5,23.0,30.16,West,266,1.0,6.0,74,0.00,,,0.00,weatherlink.com 1.10,2013-02-22 06:51:00,
2013-02-21 23:06:00,31.0,23.0,30.16,West,281,3.0,16.0,73,0.00,,,0.00,weatherlink.com 1.10,2013-02-22 07:06:00,
2013-02-21 23:21:00,30.9,24.0,30.17,SSW,207,1.0,9.0,74,0.00,,,0.00,weatherlink.com 1.10,2013-02-22 07:21:00,
2013-02-21 23:36:00,30.7,24.0,30.17,West,262,4.0,7.0,75,0.00,,,0.00,weatherlink.com 1.10,2013-02-22 07:36:00,
2013-02-21 23:51:00,30.6,24.0,30.17,WNW,293,2.0,7.0,75,0.00,,,0.00,weatherlink.com 1.10,2013-02-22 07:51:00,